createdAt,value
2018-10-19T00:00:57.714Z,15.27
2018-10-19T00:06:01.674Z,16.40
2018-10-19T00:11:05.439Z,15.33
2018-10-19T00:16:09.154Z,14.30
2018-10-19T00:21:12.997Z,14.80
2018-10-19T00:26:16.636Z,15.27
2018-10-19T00:31:20.527Z,15.73
2018-10-19T00:36:24.141Z,15.97
2018-10-19T00:41:27.951Z,12.60
2018-10-19T00:46:31.727Z,13.07
2018-10-19T00:51:35.643Z,13.87
2018-10-19T00:56:40.257Z,11.73
2018-10-19T01:01:44.042Z,15.67
2018-10-19T01:06:48.059Z,12.23
2018-10-19T01:11:51.640Z,15.20
2018-10-19T01:16:55.639Z,15.83
2018-10-19T01:21:59.496Z,14.07
2018-10-19T01:27:03.403Z,14.43
2018-10-19T01:32:07.169Z,13.73
2018-10-19T01:37:10.821Z,11.57
2018-10-19T01:42:14.698Z,13.27
2018-10-19T01:47:18.396Z,13.50
2018-10-19T01:52:22.765Z,12.80
2018-10-19T01:57:26.849Z,13.53
2018-10-19T02:02:30.897Z,15.73
2018-10-19T02:07:34.604Z,11.20
2018-10-19T02:12:38.408Z,11.83
2018-10-19T02:17:42.004Z,14.00
2018-10-19T02:22:45.669Z,13.23
2018-10-19T02:28:02.576Z,12.37
2018-10-19T02:33:06.659Z,14.87
2018-10-19T02:38:31.245Z,11.57
2018-10-19T02:43:34.951Z,13.00
2018-10-19T02:48:38.783Z,12.00
2018-10-19T02:53:42.500Z,10.20
2018-10-19T02:58:46.529Z,13.13
2018-10-19T03:03:50.328Z,11.07
2018-10-19T03:09:17.094Z,15.40
2018-10-19T03:14:21.172Z,12.57
2018-10-19T03:19:24.896Z,14.60
2018-10-19T03:24:28.596Z,11.80
2018-10-19T03:29:32.755Z,10.80
2018-10-19T03:34:36.561Z,12.27
2018-10-19T03:39:40.200Z,10.50
2018-10-19T03:44:43.921Z,11.37
2018-10-19T03:49:48.936Z,13.50
2018-10-19T03:54:53.637Z,14.50
2018-10-19T03:59:57.728Z,12.67
2018-10-19T04:05:01.636Z,11.07
2018-10-19T04:10:06.023Z,13.23
2018-10-19T04:15:10.508Z,13.60
2018-10-19T04:20:14.826Z,10.53
2018-10-19T04:25:18.610Z,10.60
2018-10-19T04:30:22.517Z,13.80
2018-10-19T04:35:26.132Z,15.20
2018-10-19T04:40:29.771Z,12.93
2018-10-19T04:45:33.585Z,12.40
2018-10-19T04:50:37.650Z,14.17
2018-10-19T04:55:41.870Z,11.47
2018-10-19T05:00:46.072Z,13.80
2018-10-19T05:05:50.301Z,11.87
2018-10-19T05:10:55.022Z,15.00
2018-10-19T05:15:58.813Z,12.43
2018-10-19T05:21:03.238Z,14.57
2018-10-19T05:26:07.664Z,12.07
2018-10-19T05:31:11.512Z,12.17
2018-10-19T05:36:15.272Z,14.37
2018-10-19T05:41:19.631Z,14.67
2018-10-19T05:46:23.335Z,15.07
2018-10-19T05:51:27.341Z,14.53
2018-10-19T05:56:31.992Z,14.17
2018-10-19T06:01:36.197Z,16.80
2018-10-19T06:06:40.409Z,19.90
2018-10-19T06:11:44.816Z,17.70
2018-10-19T06:16:48.707Z,15.80
2018-10-19T06:21:52.547Z,16.10
2018-10-19T06:26:56.723Z,14.30
2018-10-19T06:32:00.949Z,14.70
2018-10-19T06:37:04.768Z,18.23
2018-10-19T06:42:08.479Z,21.33
2018-10-19T06:47:12.836Z,15.73
2018-10-19T06:52:16.539Z,18.63
2018-10-19T06:57:21.111Z,15.67
2018-10-19T07:02:25.156Z,16.47
2018-10-19T07:07:29.123Z,14.53
2018-10-19T07:12:33.164Z,17.90
2018-10-19T07:17:37.175Z,17.40
2018-10-19T07:22:41.707Z,18.93
2018-10-19T07:27:45.713Z,21.37
2018-10-19T07:32:50.188Z,20.80
2018-10-19T07:37:54.528Z,20.00
2018-10-19T07:42:58.624Z,17.93
2018-10-19T07:48:02.841Z,20.03
2018-10-19T07:53:06.993Z,19.97
2018-10-19T07:58:10.875Z,24.60
2018-10-19T08:03:15.658Z,19.63
2018-10-19T08:08:20.098Z,26.70
2018-10-19T08:13:23.942Z,24.27
2018-10-19T08:18:27.740Z,24.97
2018-10-19T08:23:32.298Z,24.53
2018-10-19T08:28:36.380Z,24.77
2018-10-19T08:33:40.498Z,26.87
2018-10-19T08:38:44.448Z,22.17
2018-10-19T08:43:48.141Z,26.30
2018-10-19T08:48:53.384Z,25.17
2018-10-19T08:53:57.286Z,38.63
2018-10-19T08:59:06.767Z,40.77
2018-10-19T09:04:10.849Z,45.20
2018-10-19T09:09:15.560Z,45.03
2018-10-19T09:14:30.277Z,41.83
2018-10-19T09:19:34.127Z,49.60
2018-10-19T09:24:37.967Z,49.97
2018-10-19T09:29:42.432Z,44.53
2018-10-19T09:34:46.128Z,44.23
2018-10-19T09:39:49.951Z,44.10
2018-10-19T09:44:54.198Z,41.87
2018-10-19T09:49:58.098Z,46.33
2018-10-19T09:55:02.217Z,46.80
2018-10-19T10:00:17.855Z,43.53
2018-10-19T10:05:22.086Z,44.80
2018-10-19T10:10:26.547Z,45.30
2018-10-19T10:15:30.962Z,41.60
2018-10-19T10:20:35.283Z,43.60
2018-10-19T10:25:39.203Z,39.83
2018-10-19T10:30:42.979Z,41.53
2018-10-19T10:35:47.159Z,41.50
2018-10-19T10:40:50.973Z,38.30
2018-10-19T10:45:54.792Z,36.50
2018-10-19T10:50:58.810Z,37.63
2018-10-19T10:56:02.763Z,35.07
2018-10-19T11:01:06.825Z,32.13
2018-10-19T11:06:10.820Z,32.23
2018-10-19T11:11:15.756Z,30.73
2018-10-19T11:16:19.547Z,28.77
2018-10-19T11:21:23.883Z,32.17
2018-10-19T11:26:27.771Z,32.93
2018-10-19T11:31:32.172Z,31.93
2018-10-19T11:36:36.503Z,32.20
2018-10-19T11:41:40.616Z,34.63
2018-10-19T11:46:44.976Z,32.03
2018-10-19T11:51:49.620Z,36.07
2018-10-19T11:56:53.996Z,34.17
2018-10-19T12:01:59.249Z,36.17
2018-10-19T12:07:07.568Z,35.80
2018-10-19T12:12:11.244Z,34.67
2018-10-19T12:17:15.045Z,35.10
2018-10-19T12:22:19.098Z,42.07
2018-10-19T12:27:22.852Z,52.03
2018-10-19T12:32:26.763Z,63.80
2018-10-19T12:37:30.583Z,76.57
2018-10-19T12:42:36.741Z,89.87
2018-10-19T12:47:42.111Z,83.93
2018-10-19T12:52:45.883Z,76.77
2018-10-19T12:57:49.936Z,73.13
2018-10-19T13:02:53.933Z,70.50
2018-10-19T13:08:01.254Z,58.93
2018-10-19T13:13:05.397Z,43.57
2018-10-19T13:18:09.735Z,41.87
2018-10-19T13:23:13.860Z,40.97
2018-10-19T13:28:18.311Z,38.90
2018-10-19T13:33:22.234Z,35.67
2018-10-19T13:38:26.374Z,36.63
2018-10-19T13:43:30.806Z,34.90
2018-10-19T13:48:34.812Z,35.30
2018-10-19T13:53:39.827Z,35.30
2018-10-19T13:58:43.988Z,38.93
2018-10-19T14:03:48.190Z,35.87
2018-10-19T14:08:59.715Z,30.20
2018-10-19T14:14:03.961Z,34.03
2018-10-19T14:19:13.598Z,33.50
2018-10-19T14:24:18.045Z,34.43
2018-10-19T14:29:25.781Z,34.30
2018-10-19T14:34:30.199Z,28.30
2018-10-19T14:39:33.872Z,32.57
2018-10-19T14:44:42.047Z,28.60
2018-10-19T14:49:46.003Z,29.27
2018-10-19T14:54:49.901Z,29.47
2018-10-19T14:59:54.249Z,25.80
2018-10-19T15:04:58.270Z,23.37
2018-10-19T15:10:02.702Z,25.13
2018-10-19T15:15:06.977Z,24.63
2018-10-19T15:20:11.443Z,22.17
2018-10-19T15:25:15.460Z,22.87
2018-10-19T15:30:20.329Z,22.17
2018-10-19T15:35:24.423Z,20.23
2018-10-19T15:40:28.513Z,18.87
2018-10-19T15:45:33.223Z,17.73
2018-10-19T15:50:37.264Z,19.17
2018-10-19T15:55:42.304Z,17.40
2018-10-19T16:00:46.456Z,19.53
2018-10-19T16:05:50.980Z,23.20
2018-10-19T16:10:54.739Z,20.60
2018-10-19T16:15:58.871Z,17.70
2018-10-19T16:21:03.090Z,21.23
2018-10-19T16:26:07.031Z,21.80
2018-10-19T16:31:10.713Z,18.93
2018-10-19T16:36:14.758Z,13.07
2018-10-19T16:41:18.654Z,18.60
2018-10-19T16:46:23.077Z,20.13
2018-10-19T16:51:27.324Z,14.77
2018-10-19T16:56:31.099Z,21.33
2018-10-19T17:01:35.056Z,17.27
2018-10-19T17:06:39.553Z,17.87
2018-10-19T17:11:43.867Z,16.60
2018-10-19T17:16:47.581Z,22.20
2018-10-19T17:21:51.475Z,12.63
2018-10-19T17:26:55.227Z,17.13
2018-10-19T17:31:59.317Z,23.23
2018-10-19T17:37:03.014Z,17.47
2018-10-19T17:42:23.444Z,14.10
2018-10-19T17:47:27.165Z,20.93
2018-10-19T17:52:30.887Z,16.23
2018-10-19T17:57:34.675Z,18.67
2018-10-19T18:02:38.601Z,14.13
2018-10-19T18:07:42.528Z,16.47
2018-10-19T18:12:46.789Z,15.97
2018-10-19T18:17:57.195Z,17.07
2018-10-19T18:23:01.157Z,16.00
2018-10-19T18:28:25.730Z,18.03
2018-10-19T18:33:30.956Z,17.80
2018-10-19T18:49:30.651Z,16.13
2018-10-19T18:54:34.487Z,14.60
2018-10-19T18:59:38.197Z,14.03
2018-10-19T19:04:42.045Z,13.23
2018-10-19T19:09:52.799Z,15.77
2018-10-19T19:15:13.104Z,19.53
2018-10-19T19:20:22.151Z,16.53
2018-10-19T19:25:31.307Z,11.83
2018-10-19T19:30:35.375Z,10.27
2018-10-19T19:35:39.092Z,12.70
2018-10-19T19:40:48.838Z,10.97
2018-10-19T19:45:52.504Z,17.57
2018-10-19T19:50:56.843Z,16.00
2018-10-19T19:56:00.719Z,14.60
2018-10-19T20:01:05.030Z,10.93
2018-10-19T20:06:09.089Z,16.33
2018-10-19T20:11:12.934Z,10.30
2018-10-19T20:16:16.726Z,13.03
2018-10-19T20:21:20.913Z,13.17
2018-10-19T20:26:24.663Z,14.87
2018-10-19T20:31:28.589Z,14.83
2018-10-19T20:36:32.683Z,13.63
2018-10-19T20:41:36.500Z,15.70
2018-10-19T20:46:40.591Z,13.80
2018-10-19T20:51:44.761Z,12.10
2018-10-19T20:56:48.750Z,14.33
2018-10-19T21:01:53.051Z,14.50
2018-10-19T21:06:57.280Z,14.73
2018-10-19T21:12:00.966Z,14.77
2018-10-19T21:17:04.912Z,13.87
2018-10-19T21:22:09.256Z,15.53
2018-10-19T21:27:13.197Z,15.97
2018-10-19T21:32:17.020Z,12.80
2018-10-19T21:37:20.968Z,14.17
2018-10-19T21:42:25.393Z,12.20
2018-10-19T21:47:29.323Z,14.33
2018-10-19T21:52:32.892Z,13.00
2018-10-19T21:57:36.668Z,19.13
2018-10-19T22:02:40.792Z,15.07
2018-10-19T22:07:44.784Z,16.73
2018-10-19T22:12:48.607Z,16.63
2018-10-19T22:17:52.299Z,17.13
2018-10-19T22:22:56.816Z,15.50
2018-10-19T22:28:00.960Z,16.50
2018-10-19T22:33:04.970Z,16.80
2018-10-19T22:38:08.963Z,14.57
2018-10-19T22:43:13.037Z,13.17
2018-10-19T22:48:17.498Z,14.93
2018-10-19T22:53:21.229Z,11.47
2018-10-19T22:58:25.472Z,12.60
2018-10-19T23:03:29.451Z,19.60
2018-10-19T23:08:33.610Z,15.13
2018-10-19T23:13:37.747Z,19.77
2018-10-19T23:18:41.557Z,13.87
2018-10-19T23:23:45.429Z,13.63
2018-10-19T23:28:49.403Z,16.27
2018-10-19T23:33:53.629Z,11.23
2018-10-19T23:38:57.652Z,13.07
2018-10-19T23:44:02.106Z,14.50
2018-10-19T23:49:07.328Z,19.63
2018-10-19T23:54:11.225Z,20.23
